createdAt,value
2023-01-25T00:01:18.989Z,98964.81
2023-01-25T00:03:46.637Z,98969.34
2023-01-25T00:06:14.484Z,98972.53
2023-01-25T00:08:42.164Z,98977.46
2023-01-25T00:11:09.750Z,98973.41
2023-01-25T00:13:37.316Z,98978.83
2023-01-25T00:16:05.529Z,98980.77
2023-01-25T00:18:33.270Z,98980.29
2023-01-25T00:21:16.615Z,98982.67
2023-01-25T00:23:44.746Z,98981.63
2023-01-25T00:26:12.387Z,98984.77
2023-01-25T00:28:39.940Z,98981.94
2023-01-25T00:31:11.505Z,98987.75
2023-01-25T00:33:59.781Z,98990.42
2023-01-25T00:36:35.441Z,98988.04
2023-01-25T00:39:06.356Z,98989.09
2023-01-25T00:41:34.076Z,98993.90
2023-01-25T00:44:01.719Z,98994.10
2023-01-25T00:46:29.358Z,98992.44
2023-01-25T00:48:57.092Z,98991.54
2023-01-25T00:51:25.359Z,98996.50
2023-01-25T00:53:53.607Z,99000.95
2023-01-25T00:56:21.397Z,99001.70
2023-01-25T00:58:49.171Z,98990.95
2023-01-25T01:01:18.493Z,98989.54
2023-01-25T01:03:46.092Z,98990.21
2023-01-25T01:06:14.191Z,98995.94
2023-01-25T01:08:42.882Z,98996.89
2023-01-25T01:11:12.590Z,98999.04
2023-01-25T01:13:40.953Z,98996.38
2023-01-25T01:16:11.586Z,98994.23
2023-01-25T01:18:43.111Z,98995.04
2023-01-25T01:21:13.306Z,98999.33
2023-01-25T01:23:41.557Z,98990.75
2023-01-25T01:26:13.165Z,98990.14
2023-01-25T01:28:41.975Z,98988.52
2023-01-25T01:31:22.568Z,98989.80
2023-01-25T01:34:04.188Z,98990.01
2023-01-25T01:36:35.953Z,98991.48
2023-01-25T01:39:19.765Z,98989.87
2023-01-25T01:41:55.804Z,98982.24
2023-01-25T01:44:53.828Z,98986.77
2023-01-25T01:47:36.893Z,98979.49
2023-01-25T01:50:14.020Z,98986.16
2023-01-25T01:52:59.715Z,98978.16
2023-01-25T01:55:28.746Z,98980.39
2023-01-25T01:57:59.387Z,98982.69
2023-01-25T02:00:37.792Z,98980.22
2023-01-25T02:03:06.363Z,98982.40
2023-01-25T02:06:11.557Z,98978.60
2023-01-25T02:08:40.334Z,98979.03
2023-01-25T02:11:15.007Z,98983.79
2023-01-25T02:13:57.838Z,98979.65
2023-01-25T02:16:27.672Z,98977.42
2023-01-25T02:19:00.637Z,98974.61
2023-01-25T02:21:36.691Z,98971.48
2023-01-25T02:24:14.564Z,98975.48
2023-01-25T02:26:43.166Z,98974.75
2023-01-25T02:29:11.281Z,98967.80
2023-01-25T02:31:39.285Z,98970.00
2023-01-25T02:34:06.829Z,98969.19
2023-01-25T02:36:35.377Z,98973.27
2023-01-25T02:39:07.629Z,98967.95
2023-01-25T02:41:40.091Z,98963.34
2023-01-25T02:44:21.474Z,98967.57
2023-01-25T02:46:49.119Z,98966.77
2023-01-25T02:49:17.850Z,98960.67
2023-01-25T02:51:49.828Z,98966.91
2023-01-25T02:54:20.120Z,98968.84
2023-01-25T02:56:48.248Z,98969.05
2023-01-25T02:59:18.114Z,98965.86
2023-01-25T03:01:48.457Z,98963.86
2023-01-25T03:04:16.293Z,98961.58
2023-01-25T03:06:44.105Z,98957.96
2023-01-25T03:09:12.518Z,98964.24
2023-01-25T03:11:42.176Z,98956.68
2023-01-25T03:14:10.627Z,98961.72
2023-01-25T03:16:38.473Z,98950.02
2023-01-25T03:19:06.298Z,98953.84
2023-01-25T03:21:34.035Z,98951.64
2023-01-25T03:24:02.465Z,98947.27
2023-01-25T03:26:33.852Z,98948.35
2023-01-25T03:29:06.039Z,98952.06
2023-01-25T03:31:34.720Z,98953.01
2023-01-25T03:34:02.671Z,98947.59
2023-01-25T03:36:32.259Z,98944.93
2023-01-25T03:39:00.355Z,98943.40
2023-01-25T03:41:28.192Z,98937.84
2023-01-25T03:43:57.818Z,98935.55
2023-01-25T03:46:25.656Z,98930.13
2023-01-25T03:48:53.986Z,98933.52
2023-01-25T03:51:21.907Z,98930.18
2023-01-25T03:53:49.594Z,98928.47
2023-01-25T03:56:18.988Z,98931.59
2023-01-25T03:58:48.546Z,98927.27
2023-01-25T04:01:16.499Z,98933.64
2023-01-25T04:03:44.558Z,98936.91
2023-01-25T04:06:12.280Z,98942.66
2023-01-25T04:08:40.434Z,98940.72
2023-01-25T04:11:10.413Z,98933.77
2023-01-25T04:13:38.878Z,98938.94
2023-01-25T04:16:11.904Z,98938.33
2023-01-25T04:18:47.487Z,98943.36
2023-01-25T04:21:15.386Z,98947.05
2023-01-25T04:23:43.105Z,98946.02
2023-01-25T04:26:13.370Z,98950.23
2023-01-25T04:28:41.943Z,98949.42
2023-01-25T04:31:10.918Z,98948.91
2023-01-25T04:33:40.370Z,98945.86
2023-01-25T04:36:08.748Z,98951.18
2023-01-25T04:38:37.668Z,98951.77
2023-01-25T04:41:05.734Z,98949.23
2023-01-25T04:43:33.811Z,98943.33
2023-01-25T04:46:03.617Z,98945.70
2023-01-25T04:48:32.988Z,98945.70
2023-01-25T04:51:02.686Z,98948.36
2023-01-25T04:53:30.495Z,98950.70
2023-01-25T04:55:59.941Z,98949.30
2023-01-25T04:58:27.946Z,98951.86
2023-01-25T05:01:01.969Z,98958.45
2023-01-25T05:03:30.323Z,98953.33
2023-01-25T05:05:58.739Z,98953.16
2023-01-25T05:08:26.706Z,98954.63
2023-01-25T05:10:56.343Z,98949.43
2023-01-25T05:13:42.433Z,98945.56
2023-01-25T05:16:15.316Z,98952.63
2023-01-25T05:18:48.983Z,98954.77
2023-01-25T05:21:31.784Z,98956.91
2023-01-25T05:23:59.339Z,98957.95
2023-01-25T05:26:45.761Z,98954.38
2023-01-25T05:29:13.510Z,98962.48
2023-01-25T05:31:43.213Z,98961.77
2023-01-25T05:34:12.532Z,98970.34
2023-01-25T05:36:40.310Z,98965.02
2023-01-25T05:39:08.589Z,98964.60
2023-01-25T05:41:36.555Z,98968.69
2023-01-25T05:44:04.593Z,98974.08
2023-01-25T05:46:32.545Z,98975.73
2023-01-25T05:49:00.350Z,98969.89
2023-01-25T05:51:29.258Z,98974.92
2023-01-25T05:53:56.927Z,98971.00
2023-01-25T05:56:24.761Z,98967.92
2023-01-25T05:58:55.813Z,98967.41
2023-01-25T06:01:24.800Z,98972.00
2023-01-25T06:03:53.762Z,98969.12
2023-01-25T06:06:23.836Z,98971.04
2023-01-25T06:08:53.106Z,98973.92
2023-01-25T06:11:23.386Z,98981.52
2023-01-25T06:13:52.566Z,98979.89
2023-01-25T06:16:21.430Z,98981.22
2023-01-25T06:19:00.165Z,98981.44
2023-01-25T06:21:35.981Z,98978.78
2023-01-25T06:24:06.090Z,98979.89
2023-01-25T06:26:34.123Z,98980.47
2023-01-25T06:29:01.879Z,98982.84
2023-01-25T06:31:29.875Z,98995.23
2023-01-25T06:34:00.072Z,98984.48
2023-01-25T06:36:28.787Z,98997.27
2023-01-25T06:38:56.528Z,98992.59
2023-01-25T06:41:24.141Z,98989.64
2023-01-25T06:43:53.433Z,98986.25
2023-01-25T06:46:21.650Z,98992.58
2023-01-25T06:48:49.371Z,98986.17
2023-01-25T06:51:17.670Z,98991.95
2023-01-25T06:53:47.530Z,98979.80
2023-01-25T06:56:20.128Z,98988.43
2023-01-25T06:58:50.151Z,98992.88
2023-01-25T07:01:21.878Z,98988.59
2023-01-25T07:03:53.785Z,98990.86
2023-01-25T07:06:22.202Z,98988.85
2023-01-25T07:08:50.432Z,98989.89
2023-01-25T07:11:18.612Z,98992.84
2023-01-25T07:13:48.058Z,99000.11
2023-01-25T07:16:19.155Z,98996.51
2023-01-25T07:18:47.960Z,98996.87
2023-01-25T07:21:20.724Z,98987.42
2023-01-25T07:23:52.334Z,98990.56
2023-01-25T07:26:24.288Z,98986.83
2023-01-25T07:28:53.409Z,98992.70
2023-01-25T07:31:21.999Z,98984.44
2023-01-25T07:33:55.262Z,98983.26
2023-01-25T07:36:23.786Z,98988.83
2023-01-25T07:38:56.813Z,98984.47
2023-01-25T07:41:25.425Z,98978.51
2023-01-25T07:43:53.619Z,98977.99
2023-01-25T07:46:24.743Z,98973.56
2023-01-25T07:48:53.623Z,98974.32
2023-01-25T07:51:23.506Z,98974.23
2023-01-25T07:53:57.863Z,98973.64
2023-01-25T07:56:33.047Z,98971.20
2023-01-25T07:59:06.856Z,98968.81
2023-01-25T08:01:36.315Z,98964.98
2023-01-25T08:04:05.079Z,98974.37
2023-01-25T08:06:38.501Z,98969.55
2023-01-25T08:09:11.654Z,98976.45
2023-01-25T08:11:41.185Z,98973.27
2023-01-25T08:14:09.073Z,98962.00
2023-01-25T08:16:37.233Z,98965.80
2023-01-25T08:19:05.437Z,98968.98
2023-01-25T08:21:35.012Z,98972.17
2023-01-25T08:24:06.155Z,98963.41
2023-01-25T08:26:35.939Z,98966.16
2023-01-25T08:29:05.425Z,98966.73
2023-01-25T08:31:35.673Z,98967.19
2023-01-25T08:34:04.286Z,98957.98
2023-01-25T08:36:32.605Z,98952.05
2023-01-25T08:39:04.732Z,98959.30
2023-01-25T08:41:33.982Z,98951.30
2023-01-25T08:44:01.903Z,98955.89
2023-01-25T08:46:32.518Z,98955.42
2023-01-25T08:49:02.391Z,98961.64
2023-01-25T08:51:31.850Z,98959.05
2023-01-25T08:54:09.593Z,98951.86
2023-01-25T08:56:39.071Z,98959.19
2023-01-25T08:59:10.198Z,98950.94
2023-01-25T09:01:37.977Z,98945.60
2023-01-25T09:04:05.993Z,98945.76
2023-01-25T09:06:33.663Z,98942.16
2023-01-25T09:09:01.269Z,98939.33
2023-01-25T09:11:29.197Z,98939.94
2023-01-25T09:13:57.322Z,98942.13
2023-01-25T09:16:29.651Z,98937.10
2023-01-25T09:19:00.458Z,98934.43
2023-01-25T09:21:29.312Z,98929.70
2023-01-25T09:24:06.723Z,98929.44
2023-01-25T09:26:27.036Z,98920.13
2023-01-25T09:28:55.145Z,98926.52
2023-01-25T09:31:24.577Z,98925.02
2023-01-25T09:34:03.556Z,98920.49
2023-01-25T09:36:31.280Z,98920.57
2023-01-25T09:38:59.423Z,98923.53
2023-01-25T09:42:06.662Z,98907.88
2023-01-25T09:44:52.354Z,98904.97
2023-01-25T09:47:34.438Z,98899.96
2023-01-25T09:50:22.680Z,98898.63
2023-01-25T09:53:27.380Z,98890.29
2023-01-25T09:56:24.624Z,98888.45
2023-01-25T09:59:05.836Z,98875.41
2023-01-25T10:01:49.659Z,98870.68
2023-01-25T10:04:21.769Z,98868.13
2023-01-25T10:07:01.478Z,98865.27
2023-01-25T10:09:40.424Z,98857.37
2023-01-25T10:12:24.381Z,98863.94
2023-01-25T10:14:53.502Z,98856.91
2023-01-25T10:17:40.225Z,98849.58
2023-01-25T10:20:44.436Z,98844.09
2023-01-25T10:23:35.754Z,98835.61
2023-01-25T10:26:35.343Z,98833.84
2023-01-25T10:29:19.401Z,98827.79
2023-01-25T10:31:57.795Z,98824.55
2023-01-25T10:34:47.062Z,98826.64
2023-01-25T10:37:22.143Z,98824.80
2023-01-25T10:40:16.431Z,98813.27
2023-01-25T10:43:06.504Z,98809.67
2023-01-25T10:45:34.398Z,98803.36
2023-01-25T10:48:07.427Z,98797.08
2023-01-25T10:50:45.903Z,98797.64
2023-01-25T10:53:33.852Z,98788.34
2023-01-25T10:56:13.323Z,98784.27
2023-01-25T10:58:45.755Z,98786.45
2023-01-25T11:01:32.264Z,98776.84
2023-01-25T11:04:01.337Z,98776.65
2023-01-25T11:06:39.044Z,98780.74
2023-01-25T11:09:33.715Z,98774.73
2023-01-25T11:12:07.538Z,98784.17
2023-01-25T11:14:35.397Z,98771.27
2023-01-25T11:17:05.982Z,98773.59
2023-01-25T11:19:38.057Z,98771.97
2023-01-25T11:22:25.568Z,98768.44
2023-01-25T11:24:53.486Z,98758.30
2023-01-25T11:27:27.324Z,98750.78
2023-01-25T11:30:18.461Z,98755.31
2023-01-25T11:32:46.443Z,98743.23
2023-01-25T11:35:17.051Z,98748.58
2023-01-25T11:38:16.938Z,98745.91
2023-01-25T11:41:09.512Z,98734.42
2023-01-25T11:43:51.741Z,98735.77
2023-01-25T11:46:46.300Z,98726.94
2023-01-25T11:49:34.906Z,98727.47
2023-01-25T11:52:26.486Z,98721.59
2023-01-25T11:55:17.676Z,98713.63
2023-01-25T11:58:08.728Z,98708.16
2023-01-25T12:01:09.707Z,98708.82
2023-01-25T12:04:06.027Z,98707.76
2023-01-25T12:07:09.174Z,98703.95
2023-01-25T12:10:03.452Z,98705.87
2023-01-25T12:12:43.237Z,98697.27
2023-01-25T12:15:24.892Z,98696.20
2023-01-25T12:18:16.437Z,98699.66
2023-01-25T12:21:33.325Z,98687.14
2023-01-25T12:24:04.349Z,98685.61
2023-01-25T12:26:57.000Z,98689.03
2023-01-25T12:29:42.407Z,98683.41
2023-01-25T12:32:35.114Z,98679.95
2023-01-25T12:35:29.968Z,98681.29
2023-01-25T12:38:06.741Z,98681.02
2023-01-25T12:40:57.337Z,98677.28
2023-01-25T12:43:49.141Z,98680.53
2023-01-25T12:46:40.509Z,98680.06
2023-01-25T12:49:25.480Z,98673.47
2023-01-25T12:51:55.224Z,98680.33
2023-01-25T12:54:33.374Z,98665.83
2023-01-25T12:57:12.725Z,98670.06
2023-01-25T12:59:57.406Z,98672.66
2023-01-25T13:03:16.363Z,98670.19
2023-01-25T13:06:16.484Z,98662.41
2023-01-25T13:09:20.863Z,98665.95
2023-01-25T13:11:48.768Z,98669.43
2023-01-25T13:14:24.570Z,98661.89
2023-01-25T13:17:10.094Z,98662.36
2023-01-25T13:19:35.880Z,98660.09
2023-01-25T13:22:04.575Z,98664.88
2023-01-25T13:24:34.797Z,98661.42
2023-01-25T13:27:27.906Z,98655.33
2023-01-25T13:30:26.945Z,98661.75
2023-01-25T13:32:59.412Z,98654.73
2023-01-25T13:35:31.279Z,98655.72
2023-01-25T13:38:11.034Z,98645.84
2023-01-25T13:40:40.175Z,98650.17
2023-01-25T13:43:19.727Z,98646.72
2023-01-25T13:45:50.911Z,98640.23
2023-01-25T13:48:23.202Z,98642.63
2023-01-25T13:50:55.222Z,98636.20
2023-01-25T13:53:27.382Z,98638.63
2023-01-25T13:55:58.051Z,98636.69
2023-01-25T13:58:35.754Z,98638.83
2023-01-25T14:01:18.347Z,98638.16
2023-01-25T14:03:54.609Z,98637.30
2023-01-25T14:06:29.925Z,98631.14
2023-01-25T14:09:04.933Z,98636.21
2023-01-25T14:11:36.189Z,98630.39
2023-01-25T14:14:17.692Z,98633.40
2023-01-25T14:16:45.585Z,98632.62
2023-01-25T14:19:29.126Z,98625.73
2023-01-25T14:22:27.647Z,98628.99
2023-01-25T14:25:12.163Z,98623.13
2023-01-25T14:27:53.216Z,98633.28
2023-01-25T14:30:32.826Z,98622.59
2023-01-25T14:33:05.841Z,98621.25
2023-01-25T14:35:54.134Z,98628.27
2023-01-25T14:38:32.863Z,98622.12
2023-01-25T14:41:34.449Z,98626.67
2023-01-25T14:44:10.135Z,98619.72
2023-01-25T14:46:39.468Z,98618.11
2023-01-25T14:49:20.161Z,98617.05
2023-01-25T14:52:10.320Z,98616.77
2023-01-25T14:54:52.499Z,98614.65
2023-01-25T14:57:33.893Z,98625.61
2023-01-25T15:00:19.341Z,98613.84
2023-01-25T15:02:54.993Z,98611.42
2023-01-25T15:05:29.833Z,98606.55
2023-01-25T15:08:11.931Z,98610.77
2023-01-25T15:11:01.681Z,98614.24
2023-01-25T15:13:29.827Z,98610.77
2023-01-25T15:16:00.672Z,98608.64
2023-01-25T15:18:53.354Z,98605.97
2023-01-25T15:21:28.521Z,98607.09
2023-01-25T15:24:01.296Z,98603.63
2023-01-25T15:26:31.842Z,98606.55
2023-01-25T15:29:04.801Z,98606.55
2023-01-25T15:31:36.583Z,98612.17
2023-01-25T15:34:04.761Z,98618.11
2023-01-25T15:36:33.493Z,98609.78
2023-01-25T15:39:01.405Z,98610.09
2023-01-25T15:41:29.003Z,98617.05
2023-01-25T15:43:56.999Z,98614.92
2023-01-25T15:46:31.238Z,98613.89
2023-01-25T15:48:59.807Z,98612.56
2023-01-25T15:51:28.229Z,98624.59
2023-01-25T15:53:55.925Z,98616.56
2023-01-25T15:56:33.362Z,98620.86
2023-01-25T15:59:08.158Z,98615.23
2023-01-25T16:01:35.792Z,98617.10
2023-01-25T16:04:03.496Z,98621.11
2023-01-25T16:06:45.033Z,98618.44
2023-01-25T16:09:19.971Z,98617.59
2023-01-25T16:11:51.319Z,98626.41
2023-01-25T16:14:19.159Z,98622.12
2023-01-25T16:16:52.220Z,98616.77
2023-01-25T16:19:22.837Z,98621.58
2023-01-25T16:21:51.415Z,98619.97
2023-01-25T16:24:19.510Z,98611.12
2023-01-25T16:26:55.702Z,98612.45
2023-01-25T16:29:23.772Z,98610.84
2023-01-25T16:31:53.048Z,98616.19
2023-01-25T16:34:21.596Z,98612.23
2023-01-25T16:36:50.628Z,98613.03
2023-01-25T16:39:25.823Z,98604.74
2023-01-25T16:41:55.510Z,98604.74
2023-01-25T16:44:23.235Z,98604.74
2023-01-25T16:46:50.995Z,98605.27
2023-01-25T16:49:25.042Z,98600.16
2023-01-25T16:51:56.437Z,98595.87
2023-01-25T16:54:25.584Z,98603.30
2023-01-25T16:56:54.457Z,98592.92
2023-01-25T16:59:24.147Z,98595.87
2023-01-25T17:01:52.415Z,98600.16
2023-01-25T17:04:20.311Z,98604.44
2023-01-25T17:06:50.387Z,98597.48
2023-01-25T17:09:24.170Z,98597.48
2023-01-25T17:11:49.700Z,98595.87
2023-01-25T17:14:18.656Z,98588.66
2023-01-25T17:16:49.810Z,98594.80
2023-01-25T17:19:18.633Z,98593.25
2023-01-25T17:21:46.449Z,98594.61
2023-01-25T17:24:17.162Z,98599.20
2023-01-25T17:26:45.073Z,98592.79
2023-01-25T17:29:13.277Z,98583.71
2023-01-25T17:31:41.631Z,98581.83
2023-01-25T17:34:13.299Z,98573.22
2023-01-25T17:36:41.659Z,98577.23
2023-01-25T17:39:13.505Z,98571.89
2023-01-25T17:41:43.540Z,98574.03
2023-01-25T17:44:12.052Z,98574.83
2023-01-25T17:46:40.298Z,98577.81
2023-01-25T17:49:12.483Z,98571.89
2023-01-25T17:51:40.449Z,98568.94
2023-01-25T17:54:09.472Z,98561.98
2023-01-25T17:56:39.538Z,98568.61
2023-01-25T17:59:11.319Z,98564.08
2023-01-25T18:01:41.718Z,98561.98
2023-01-25T18:04:12.946Z,98563.31
2023-01-25T18:06:40.862Z,98560.06
2023-01-25T18:09:08.699Z,98558.73
2023-01-25T18:11:39.543Z,98564.08
2023-01-25T18:14:12.152Z,98561.13
2023-01-25T18:16:40.563Z,98560.06
2023-01-25T18:19:08.940Z,98562.46
2023-01-25T18:21:37.276Z,98554.72
2023-01-25T18:24:27.958Z,98553.38
2023-01-25T18:27:10.967Z,98552.05
2023-01-25T18:30:01.923Z,98554.72
2023-01-25T18:32:32.480Z,98557.11
2023-01-25T18:35:00.226Z,98559.52
2023-01-25T18:37:30.097Z,98557.37
2023-01-25T18:39:57.982Z,98556.03
2023-01-25T18:42:27.888Z,98549.05
2023-01-25T18:44:55.277Z,98545.84
2023-01-25T18:47:23.255Z,98546.91
2023-01-25T18:49:52.886Z,98540.80
2023-01-25T18:52:22.806Z,98547.18
2023-01-25T18:54:51.025Z,98550.69
2023-01-25T18:57:18.898Z,98537.33
2023-01-25T18:59:46.452Z,98538.94
2023-01-25T19:02:16.336Z,98539.74
2023-01-25T19:04:45.266Z,98533.06
2023-01-25T19:07:13.662Z,98528.58
2023-01-25T19:09:44.200Z,98529.66
2023-01-25T19:12:11.883Z,98526.45
2023-01-25T19:14:41.632Z,98530.98
2023-01-25T19:17:09.512Z,98528.58
2023-01-25T19:19:37.811Z,98519.22
2023-01-25T19:22:05.622Z,98522.42
2023-01-25T19:24:33.351Z,98526.93
2023-01-25T19:27:01.028Z,98524.26
2023-01-25T19:29:28.821Z,98520.55
2023-01-25T19:31:56.409Z,98513.34
2023-01-25T19:34:24.399Z,98513.36
2023-01-25T19:36:53.419Z,98509.66
2023-01-25T19:39:21.021Z,98500.58
2023-01-25T19:41:52.776Z,98496.84
2023-01-25T19:44:21.205Z,98490.44
2023-01-25T19:46:48.795Z,98483.75
2023-01-25T19:49:16.893Z,98482.14
2023-01-25T19:51:45.074Z,98493.11
2023-01-25T19:54:16.614Z,98486.15
2023-01-25T19:56:46.829Z,98485.88
2023-01-25T19:59:21.314Z,98478.92
2023-01-25T20:01:49.125Z,98483.20
2023-01-25T20:04:20.465Z,98488.59
2023-01-25T20:06:49.827Z,98488.61
2023-01-25T20:09:19.672Z,98484.87
2023-01-25T20:11:47.701Z,98488.39
2023-01-25T20:14:15.773Z,98482.73
2023-01-25T20:16:43.473Z,98480.87
2023-01-25T20:19:12.365Z,98472.58
2023-01-25T20:21:40.410Z,98466.70
2023-01-25T20:24:09.829Z,98466.17
2023-01-25T20:26:42.218Z,98468.03
2023-01-25T20:29:12.149Z,98461.88
2023-01-25T20:31:43.499Z,98458.15
2023-01-25T20:34:21.417Z,98458.15
2023-01-25T20:36:50.474Z,98454.40
2023-01-25T20:39:21.872Z,98454.93
2023-01-25T20:41:52.120Z,98461.03
2023-01-25T20:44:19.909Z,98456.75
2023-01-25T20:46:49.509Z,98457.55
2023-01-25T20:49:18.501Z,98453.53
2023-01-25T20:51:47.253Z,98450.28
2023-01-25T20:54:16.378Z,98440.92
2023-01-25T20:56:46.091Z,98442.27
2023-01-25T20:59:15.881Z,98441.72
2023-01-25T21:01:43.887Z,98443.59
2023-01-25T21:04:11.773Z,98448.40
2023-01-25T21:06:39.354Z,98439.80
2023-01-25T21:09:06.910Z,98435.80
2023-01-25T21:11:34.856Z,98442.75
2023-01-25T21:14:02.812Z,98440.38
2023-01-25T21:16:30.420Z,98429.59
2023-01-25T21:19:01.596Z,98432.00
2023-01-25T21:21:32.231Z,98430.59
2023-01-25T21:24:02.213Z,98426.22
2023-01-25T21:26:33.423Z,98432.56
2023-01-25T21:29:04.022Z,98425.23
2023-01-25T21:31:35.917Z,98425.17
2023-01-25T21:34:05.751Z,98430.99
2023-01-25T21:36:33.508Z,98431.67
2023-01-25T21:39:01.056Z,98430.47
2023-01-25T21:41:32.737Z,98430.48
2023-01-25T21:44:19.522Z,98436.41
2023-01-25T21:47:08.627Z,98422.19
2023-01-25T21:49:35.505Z,98422.00
2023-01-25T21:52:03.351Z,98418.86
2023-01-25T21:54:36.022Z,98417.61
2023-01-25T21:57:08.695Z,98415.08
2023-01-25T21:59:37.858Z,98420.32
2023-01-25T22:02:14.250Z,98419.38
2023-01-25T22:04:42.336Z,98424.30
2023-01-25T22:07:10.693Z,98422.02
2023-01-25T22:09:38.367Z,98415.50
2023-01-25T22:12:06.282Z,98409.34
2023-01-25T22:14:34.246Z,98408.69
2023-01-25T22:17:02.708Z,98406.30
2023-01-25T22:19:30.590Z,98413.52
2023-01-25T22:21:58.174Z,98402.30
2023-01-25T22:24:26.158Z,98396.97
2023-01-25T22:27:04.959Z,98400.78
2023-01-25T22:29:33.709Z,98401.66
2023-01-25T22:32:02.555Z,98393.47
2023-01-25T22:34:29.931Z,98392.50
2023-01-25T22:36:57.957Z,98388.70
2023-01-25T22:39:25.796Z,98383.34
2023-01-25T22:41:53.550Z,98387.23
2023-01-25T22:44:21.355Z,98383.16
2023-01-25T22:46:49.980Z,98379.78
2023-01-25T22:49:17.877Z,98382.78
2023-01-25T22:51:45.574Z,98380.69
2023-01-25T22:54:13.270Z,98376.21
2023-01-25T22:56:40.866Z,98371.38
2023-01-25T22:59:13.905Z,98369.23
2023-01-25T23:01:41.592Z,98374.34
2023-01-25T23:04:09.271Z,98370.90
2023-01-25T23:06:37.548Z,98361.36
2023-01-25T23:09:06.257Z,98361.96
2023-01-25T23:11:36.563Z,98362.01
2023-01-25T23:14:26.498Z,98362.61
2023-01-25T23:16:56.101Z,98359.99
2023-01-25T23:19:26.018Z,98354.34
2023-01-25T23:21:53.632Z,98351.20
2023-01-25T23:24:24.263Z,98340.89
2023-01-25T23:26:52.298Z,98337.76
2023-01-25T23:29:19.931Z,98339.41
2023-01-25T23:31:47.757Z,98337.50
2023-01-25T23:34:15.298Z,98345.81
2023-01-25T23:36:43.408Z,98339.41
2023-01-25T23:39:12.769Z,98337.30
2023-01-25T23:41:40.311Z,98338.94
2023-01-25T23:44:08.799Z,98333.61
2023-01-25T23:46:36.745Z,98329.12
2023-01-25T23:49:04.395Z,98327.53
2023-01-25T23:51:31.918Z,98325.69
2023-01-25T23:53:59.608Z,98321.16
2023-01-25T23:56:27.474Z,98314.75
2023-01-25T23:58:55.390Z,98321.95
